Time;durP1;ratioP1;P1;durP2;ratioP2;P2;SDS_P1;SDS_P2;PMS_P1;PMS_P2;Temp;Humidity;BMP_temperature;BMP_pressure;BME280_temperature;BME280_humidity;BME280_pressure;Samples;Min_cycle;Max_cycle;Signal;HPM_P1;HPM_P2
2022/07/22 00:00:57;;;;;;;;;;;;;;;25.93;52.64;99784.72;5084301;28;19916;-67
2022/07/22 00:03:22;;;;;;;;;;;;;;;26.09;51.88;99792.72;5086420;28;19966;-67
2022/07/22 00:05:47;;;;;;;;;;;;;;;26.05;52.12;99794.34;5067289;28;19943;-67
2022/07/22 00:08:13;;;;;;;;;;;;;;;26.13;51.89;99798.44;5084828;28;19984;-67
2022/07/22 00:10:38;;;;;;;;;;;;;;;26.12;51.65;99796.81;5083120;28;19919;-68
2022/07/22 00:13:03;;;;;;;;;;;;;;;26.20;51.80;99796.31;5084592;28;19920;-67
2022/07/22 00:15:29;;;;;;;;;;;;;;;26.21;51.80;99805.28;5083573;28;19916;-67
2022/07/22 00:17:54;;;;;;;;;;;;;;;26.23;51.77;99803.94;5084605;28;19924;-67
2022/07/22 00:20:20;;;;;;;;;;;;;;;26.24;51.56;99807.47;5084538;28;19916;-67
2022/07/22 00:22:45;;;;;;;;;;;;;;;26.24;51.71;99805.56;5084668;28;20094;-67
2022/07/22 00:25:10;;;;;;;;;;;;;;;26.23;51.60;99805.84;5084802;28;19938;-67
2022/07/22 00:27:35;;;;;;;;;;;;;;;26.15;51.89;99817.19;5084895;28;19913;-67
2022/07/22 00:30:01;;;;;;;;;;;;;;;26.04;52.07;99808.97;5086223;28;19983;-67
2022/07/22 00:32:26;;;;;;;;;;;;;;;25.99;52.24;99814.34;5081671;28;19951;-67
2022/07/22 00:34:51;;;;;;;;;;;;;;;26.04;51.97;99813.59;5086111;28;19923;-67
2022/07/22 00:37:17;;;;;;;;;;;;;;;26.10;52.02;99815.25;5086476;28;19928;-68
2022/07/22 00:39:42;;;;;;;;;;;;;;;26.11;51.72;99818.78;5082893;28;19989;-67
2022/07/22 00:42:07;;;;;;;;;;;;;;;25.97;52.08;99812.97;5085896;28;19950;-67
2022/07/22 00:44:32;;;;;;;;;;;;;;;25.89;52.55;99816.19;5083756;28;19916;-67
2022/07/22 00:46:58;;;;;;;;;;;;;;;25.86;52.44;99813.97;5084204;28;19912;-67
2022/07/22 00:49:23;;;;;;;;;;;;;;;25.75;52.93;99818.50;5082233;28;20071;-67
2022/07/22 00:51:49;;;;;;;;;;;;;;;25.67;53.12;99806.25;5081944;28;20279;-67
2022/07/22 00:54:14;;;;;;;;;;;;;;;25.52;53.63;99811.53;5064916;28;19991;-68
2022/07/22 00:56:39;;;;;;;;;;;;;;;25.46;53.80;99813.38;5081771;28;19944;-67
2022/07/22 00:59:06;;;;;;;;;;;;;;;25.29;54.63;99815.38;5083957;28;20251;-68
2022/07/22 01:01:32;;;;;;;;;;;;;;;25.25;54.60;99816.16;5082313;28;19957;-67
2022/07/22 01:03:57;;;;;;;;;;;;;;;25.26;54.79;99813.19;5082215;28;20132;-67
2022/07/22 01:06:22;;;;;;;;;;;;;;;24.96;55.48;99810.09;5082460;28;20251;-67
2022/07/22 01:08:48;;;;;;;;;;;;;;;24.81;56.22;99813.47;5082832;28;19912;-67
2022/07/22 01:11:15;;;;;;;;;;;;;;;24.81;56.34;99817.00;5083325;28;19919;-67
2022/07/22 01:13:40;;;;;;;;;;;;;;;24.84;55.99;99816.47;5082343;28;19919;-67
2022/07/22 01:16:07;;;;;;;;;;;;;;;24.89;55.94;99823.03;5082543;28;19912;-67
2022/07/22 01:18:32;;;;;;;;;;;;;;;24.90;55.94;99814.66;5081639;28;19919;-67
2022/07/22 01:20:58;;;;;;;;;;;;;;;24.86;56.15;99820.81;5084599;28;19975;-67
2022/07/22 01:23:23;;;;;;;;;;;;;;;24.76;56.21;99830.47;5082839;28;19912;-67
2022/07/22 01:25:49;;;;;;;;;;;;;;;24.79;56.02;99827.25;5085567;28;19920;-67
2022/07/22 01:28:14;;;;;;;;;;;;;;;24.85;55.81;99822.72;5073050;28;19913;-67
2022/07/22 01:30:39;;;;;;;;;;;;;;;24.88;55.67;99824.09;5040325;28;19913;-67
2022/07/22 01:33:05;;;;;;;;;;;;;;;24.84;55.51;99821.91;5041607;28;19954;-67
2022/07/22 01:35:30;;;;;;;;;;;;;;;24.89;55.40;99825.75;5044112;28;19917;-67
2022/07/22 01:37:55;;;;;;;;;;;;;;;24.86;55.37;99827.06;5042488;28;19956;-67
2022/07/22 01:40:20;;;;;;;;;;;;;;;24.88;55.29;99824.09;5043593;28;19931;-67
2022/07/22 01:42:46;;;;;;;;;;;;;;;24.87;55.35;99817.88;5043206;28;19973;-67
2022/07/22 01:45:11;;;;;;;;;;;;;;;24.88;55.34;99819.50;5042563;28;19916;-67
2022/07/22 01:47:36;;;;;;;;;;;;;;;24.97;54.85;99815.34;5042370;28;19924;-67
2022/07/22 01:50:03;;;;;;;;;;;;;;;24.93;55.16;99811.44;5042734;28;19921;-67
2022/07/22 01:52:28;;;;;;;;;;;;;;;24.91;55.40;99815.47;5043835;28;19972;-67
2022/07/22 01:54:53;;;;;;;;;;;;;;;24.97;55.79;99817.16;5043730;28;20221;-67
2022/07/22 01:57:19;;;;;;;;;;;;;;;24.99;54.55;99817.78;5060090;28;19958;-67
2022/07/22 01:59:44;;;;;;;;;;;;;;;24.91;54.73;99812.75;5060355;28;19959;-67
2022/07/22 02:02:09;;;;;;;;;;;;;;;24.77;55.57;99809.63;5043523;28;19954;-67
2022/07/22 02:04:34;;;;;;;;;;;;;;;24.67;56.50;99812.22;5042565;28;19990;-67
2022/07/22 02:07:00;;;;;;;;;;;;;;;24.44;57.68;99810.59;5043224;28;19913;-67
2022/07/22 02:09:25;;;;;;;;;;;;;;;24.22;58.48;99812.41;5042320;28;19963;-67
2022/07/22 02:11:50;;;;;;;;;;;;;;;24.09;58.59;99811.69;5043165;28;19913;-67
2022/07/22 02:14:16;;;;;;;;;;;;;;;24.18;58.28;99810.22;5043237;28;19940;-68
2022/07/22 02:16:41;;;;;;;;;;;;;;;24.23;57.92;99804.06;5057606;28;19913;-67
2022/07/22 02:19:06;;;;;;;;;;;;;;;24.37;57.43;99799.94;5043710;28;19936;-67
2022/07/22 02:21:32;;;;;;;;;;;;;;;24.41;57.51;99805.66;5042389;28;20187;-67
2022/07/22 02:23:57;;;;;;;;;;;;;;;24.50;57.01;99807.69;5043024;28;19916;-67
2022/07/22 02:26:22;;;;;;;;;;;;;;;24.50;56.70;99804.16;5042705;28;20115;-67
2022/07/22 02:28:47;;;;;;;;;;;;;;;24.48;56.57;99799.00;5060877;28;19954;-67
2022/07/22 02:31:13;;;;;;;;;;;;;;;24.46;56.93;99803.03;5081659;28;19919;-67
2022/07/22 02:33:38;;;;;;;;;;;;;;;24.43;56.72;99801.66;5083362;28;19920;-67
2022/07/22 02:36:04;;;;;;;;;;;;;;;24.40;56.65;99802.16;5082231;28;19920;-67
2022/07/22 02:38:29;;;;;;;;;;;;;;;24.37;56.86;99807.25;5082714;28;19924;-67
2022/07/22 02:40:55;;;;;;;;;;;;;;;24.29;57.00;99803.06;5083242;28;19917;-67
2022/07/22 02:43:20;;;;;;;;;;;;;;;24.17;57.88;99802.34;5085956;28;19919;-68
2022/07/22 02:45:45;;;;;;;;;;;;;;;24.13;58.21;99809.31;5101286;28;19912;-67
2022/07/22 02:48:11;;;;;;;;;;;;;;;24.19;57.56;99805.63;5098377;28;20098;-68
2022/07/22 02:50:37;;;;;;;;;;;;;;;24.23;57.14;99801.34;5083170;28;19924;-68
2022/07/22 02:53:03;;;;;;;;;;;;;;;24.32;56.95;99796.34;5083075;28;19947;-68
2022/07/22 02:55:28;;;;;;;;;;;;;;;24.42;56.78;99794.59;5081788;28;19916;-68
2022/07/22 02:57:53;;;;;;;;;;;;;;;24.41;55.86;99801.06;5077865;28;19950;-67
2022/07/22 03:00:19;;;;;;;;;;;;;;;24.38;56.13;99796.16;5082735;28;19999;-67
2022/07/22 03:02:44;;;;;;;;;;;;;;;24.32;56.55;99794.47;5081744;28;19979;-67
2022/07/22 03:05:09;;;;;;;;;;;;;;;24.15;57.40;99802.59;5082774;28;19917;-67
2022/07/22 03:07:35;;;;;;;;;;;;;;;24.13;57.13;99795.78;5082384;28;19913;-67
2022/07/22 03:10:00;;;;;;;;;;;;;;;23.98;57.43;99799.09;5084395;28;20201;-67
2022/07/22 03:12:25;;;;;;;;;;;;;;;23.99;57.43;99797.22;5085607;28;19912;-67
2022/07/22 03:14:51;;;;;;;;;;;;;;;23.99;57.29;99795.31;5085401;28;20136;-67
2022/07/22 03:17:16;;;;;;;;;;;;;;;24.00;57.70;99799.66;5085026;28;20337;-67
2022/07/22 03:19:41;;;;;;;;;;;;;;;24.07;57.50;99804.91;5085158;28;19923;-67
2022/07/22 03:22:07;;;;;;;;;;;;;;;23.98;57.54;99804.50;5082689;28;19915;-67
2022/07/22 03:24:33;;;;;;;;;;;;;;;23.91;57.85;99806.53;5084093;28;20117;-67
2022/07/22 03:26:58;;;;;;;;;;;;;;;23.88;57.83;99798.91;5087808;28;19920;-67
2022/07/22 03:29:23;;;;;;;;;;;;;;;23.87;58.20;99803.50;5066015;28;20130;-67
2022/07/22 03:31:49;;;;;;;;;;;;;;;23.89;57.99;99809.50;5042584;28;19913;-67
2022/07/22 03:34:14;;;;;;;;;;;;;;;23.92;57.94;99815.47;5044445;28;19971;-68
2022/07/22 03:36:39;;;;;;;;;;;;;;;23.87;58.12;99811.63;5044263;28;19913;-67
2022/07/22 03:39:05;;;;;;;;;;;;;;;23.86;58.37;99817.28;5044864;28;19921;-67
2022/07/22 03:41:30;;;;;;;;;;;;;;;23.91;58.53;99814.66;5044108;28;19947;-67
2022/07/22 03:43:56;;;;;;;;;;;;;;;23.91;58.73;99813.84;5044300;28;19917;-67
2022/07/22 03:46:21;;;;;;;;;;;;;;;23.84;58.88;99809.41;5046921;28;19909;-67
2022/07/22 03:48:46;;;;;;;;;;;;;;;23.76;59.75;99809.81;5046899;28;19995;-67
2022/07/22 03:51:11;;;;;;;;;;;;;;;23.59;60.41;99814.41;5045786;28;19913;-67
2022/07/22 03:53:37;;;;;;;;;;;;;;;23.54;61.23;99825.09;5060599;28;19925;-67
2022/07/22 03:56:02;;;;;;;;;;;;;;;23.42;62.04;99825.19;5046280;28;20230;-67
2022/07/22 03:58:28;;;;;;;;;;;;;;;23.62;61.58;99830.13;5044662;28;19959;-67
2022/07/22 04:00:53;;;;;;;;;;;;;;;23.64;61.65;99824.50;5045595;28;20219;-67
2022/07/22 04:03:19;;;;;;;;;;;;;;;23.55;62.10;99821.38;5044254;28;20206;-67
2022/07/22 04:05:45;;;;;;;;;;;;;;;23.54;62.57;99830.50;5046001;28;20208;-67
2022/07/22 04:08:10;;;;;;;;;;;;;;;23.66;62.03;99825.88;5045184;28;20190;-67
2022/07/22 04:10:36;;;;;;;;;;;;;;;23.67;62.22;99832.94;5043731;28;19917;-67
2022/07/22 04:13:01;;;;;;;;;;;;;;;23.61;62.55;99831.22;5046139;28;19913;-68
2022/07/22 04:15:26;;;;;;;;;;;;;;;23.68;62.87;99831.88;5045616;28;19989;-67
2022/07/22 04:17:51;;;;;;;;;;;;;;;23.84;62.50;99836.44;5044847;28;19917;-68
2022/07/22 04:20:17;;;;;;;;;;;;;;;24.09;61.99;99835.22;5043867;28;19966;-67
2022/07/22 04:22:42;;;;;;;;;;;;;;;24.25;61.89;99834.38;5042877;28;19924;-67
2022/07/22 04:25:08;;;;;;;;;;;;;;;24.17;62.65;99835.63;5042566;28;19916;-67
2022/07/22 04:27:33;;;;;;;;;;;;;;;24.13;62.28;99830.97;5044379;28;19913;-67
2022/07/22 04:29:58;;;;;;;;;;;;;;;24.09;62.25;99836.03;5084111;28;19990;-67
2022/07/22 04:32:24;;;;;;;;;;;;;;;24.20;61.46;99837.00;5085350;28;20265;-67
2022/07/22 04:34:49;;;;;;;;;;;;;;;24.22;62.25;99842.19;5083319;28;19912;-67
2022/07/22 04:37:14;;;;;;;;;;;;;;;24.40;62.38;99842.75;5083841;28;20205;-67
2022/07/22 04:39:39;;;;;;;;;;;;;;;24.68;60.60;99840.94;5096758;28;20198;-67
2022/07/22 04:42:05;;;;;;;;;;;;;;;24.96;61.31;99839.91;5103706;28;20113;-68
2022/07/22 04:44:30;;;;;;;;;;;;;;;25.01;60.97;99845.44;5103956;28;19946;-67
2022/07/22 04:46:55;;;;;;;;;;;;;;;24.99;59.94;99847.59;5103776;28;19916;-67
2022/07/22 04:49:21;;;;;;;;;;;;;;;25.22;59.08;99839.16;5103915;28;19920;-67
2022/07/22 04:51:46;;;;;;;;;;;;;;;25.26;58.07;99839.47;5103493;28;19934;-67
2022/07/22 04:54:11;;;;;;;;;;;;;;;25.28;57.21;99838.13;5103709;28;20194;-67
2022/07/22 04:56:37;;;;;;;;;;;;;;;25.46;56.93;99850.50;5103435;28;20000;-67
2022/07/22 04:59:02;;;;;;;;;;;;;;;25.56;55.67;99847.06;5103683;28;19993;-67
2022/07/22 05:01:27;;;;;;;;;;;;;;;25.62;56.07;99843.31;5103437;28;19920;-68
2022/07/22 05:03:53;;;;;;;;;;;;;;;25.82;55.57;99840.00;5103504;28;20144;-67
2022/07/22 05:06:18;;;;;;;;;;;;;;;25.96;54.43;99841.19;5103509;28;19908;-67
2022/07/22 05:08:44;;;;;;;;;;;;;;;26.28;54.03;99844.69;5103196;28;20127;-67
2022/07/22 05:11:09;;;;;;;;;;;;;;;26.31;53.38;99844.16;5103534;28;20109;-67
2022/07/22 05:13:34;;;;;;;;;;;;;;;26.45;52.69;99841.81;5103632;28;19919;-67
2022/07/22 05:16:03;;;;;;;;;;;;;;;26.63;52.58;99840.53;5103276;28;19927;-67
2022/07/22 05:18:29;;;;;;;;;;;;;;;26.42;52.35;99828.75;5097357;28;19912;-67
2022/07/22 05:20:54;;;;;;;;;;;;;;;26.54;52.65;99825.84;5103294;28;20280;-67
2022/07/22 05:23:19;;;;;;;;;;;;;;;26.74;52.04;99828.63;5103035;28;19987;-67
2022/07/22 05:25:44;;;;;;;;;;;;;;;26.89;50.40;99831.41;5102993;28;19934;-67
2022/07/22 05:28:10;;;;;;;;;;;;;;;26.95;51.36;99830.34;5103064;28;19912;-67
2022/07/22 05:30:35;;;;;;;;;;;;;;;26.69;51.70;99831.34;5103086;28;20101;-67
2022/07/22 05:33:00;;;;;;;;;;;;;;;26.83;51.23;99839.81;5089593;28;19927;-68
2022/07/22 05:35:26;;;;;;;;;;;;;;;26.92;51.48;99830.88;5083124;28;19916;-67
2022/07/22 05:37:51;;;;;;;;;;;;;;;27.21;50.99;99827.72;5085057;28;20071;-68
2022/07/22 05:40:16;;;;;;;;;;;;;;;27.50;50.69;99841.63;5081814;28;20378;-67
2022/07/22 05:42:41;;;;;;;;;;;;;;;28.05;48.94;99838.09;5081186;28;19919;-67
2022/07/22 05:45:07;;;;;;;;;;;;;;;28.23;47.39;99836.78;5081327;28;19916;-68
2022/07/22 05:47:32;;;;;;;;;;;;;;;28.52;47.12;99817.88;5082534;28;20263;-68
2022/07/22 05:49:58;;;;;;;;;;;;;;;28.91;46.07;99823.47;5082031;28;19916;-67
2022/07/22 05:52:23;;;;;;;;;;;;;;;29.01;45.68;99825.31;5083100;28;20470;-68
2022/07/22 05:54:48;;;;;;;;;;;;;;;29.37;44.63;99817.75;5083026;28;19923;-68
2022/07/22 05:57:13;;;;;;;;;;;;;;;29.45;44.14;99822.63;5083104;28;19916;-67
2022/07/22 05:59:39;;;;;;;;;;;;;;;29.61;44.05;99826.03;5085366;28;19923;-68
2022/07/22 06:02:04;;;;;;;;;;;;;;;29.52;44.02;99825.84;5083794;28;20198;-68
2022/07/22 06:04:30;;;;;;;;;;;;;;;29.62;43.55;99825.75;5085493;28;20206;-67
2022/07/22 06:06:55;;;;;;;;;;;;;;;29.60;43.00;99816.22;5084440;28;20139;-67
2022/07/22 06:09:21;;;;;;;;;;;;;;;29.32;44.09;99821.31;5083491;28;19923;-67
2022/07/22 06:11:46;;;;;;;;;;;;;;;29.22;44.02;99821.41;5084105;28;20291;-68
2022/07/22 06:14:11;;;;;;;;;;;;;;;29.16;44.68;99826.06;5082133;28;19984;-68
2022/07/22 06:16:37;;;;;;;;;;;;;;;29.36;43.97;99816.13;5083305;28;19956;-67
2022/07/22 06:19:02;;;;;;;;;;;;;;;29.24;44.59;99814.56;5083147;28;19916;-68
2022/07/22 06:21:28;;;;;;;;;;;;;;;29.58;44.10;99808.34;5083391;28;19920;-68
2022/07/22 06:23:53;;;;;;;;;;;;;;;29.86;42.88;99804.81;5082065;28;19923;-68
2022/07/22 06:26:18;;;;;;;;;;;;;;;30.23;41.81;99808.03;5082133;28;19920;-68
2022/07/22 06:28:44;;;;;;;;;;;;;;;30.50;41.32;99809.06;5083503;28;19931;-67
2022/07/22 06:31:09;;;;;;;;;;;;;;;30.71;40.94;99814.31;5083204;28;19919;-68
2022/07/22 06:33:34;;;;;;;;;;;;;;;30.90;40.22;99811.59;5082871;28;20244;-68
2022/07/22 06:36:00;;;;;;;;;;;;;;;31.03;39.10;99811.69;5083862;28;19916;-68
2022/07/22 06:38:25;;;;;;;;;;;;;;;31.25;38.73;99810.31;5082832;28;20213;-68
2022/07/22 06:40:50;;;;;;;;;;;;;;;31.58;37.09;99805.69;5082496;28;19932;-68
2022/07/22 06:43:16;;;;;;;;;;;;;;;31.58;37.55;99809.25;5084048;28;19913;-68
2022/07/22 06:45:41;;;;;;;;;;;;;;;31.92;36.34;99810.88;5084275;28;19931;-68
2022/07/22 06:48:06;;;;;;;;;;;;;;;32.32;35.73;99806.59;5087206;28;19940;-68
2022/07/22 06:50:32;;;;;;;;;;;;;;;32.29;36.05;99799.81;5085367;28;19921;-68
2022/07/22 06:52:57;;;;;;;;;;;;;;;32.20;36.00;99796.09;5087344;28;19920;-68
2022/07/22 06:55:22;;;;;;;;;;;;;;;32.40;35.59;99796.88;5085147;28;19983;-68
2022/07/22 06:57:48;;;;;;;;;;;;;;;32.56;35.35;99809.94;5086384;28;19983;-68
2022/07/22 07:00:13;;;;;;;;;;;;;;;32.62;35.08;99805.16;5087018;28;19923;-68
2022/07/22 07:02:39;;;;;;;;;;;;;;;32.55;34.71;99804.78;5085845;28;19913;-68
2022/07/22 07:05:04;;;;;;;;;;;;;;;32.50;34.14;99802.94;5086318;28;19917;-68
2022/07/22 07:07:30;;;;;;;;;;;;;;;32.96;33.39;99797.31;5086504;28;19938;-68
2022/07/22 07:09:55;;;;;;;;;;;;;;;33.00;33.63;99792.81;5085655;28;19916;-68
2022/07/22 07:12:20;;;;;;;;;;;;;;;33.00;33.75;99797.50;5086266;28;19919;-68
2022/07/22 07:14:46;;;;;;;;;;;;;;;33.05;33.78;99802.88;5084119;28;20213;-68
2022/07/22 07:17:11;;;;;;;;;;;;;;;33.29;32.71;99805.31;5084365;28;19912;-68
2022/07/22 07:19:36;;;;;;;;;;;;;;;33.49;32.71;99799.41;5085160;28;20214;-68
2022/07/22 07:22:02;;;;;;;;;;;;;;;33.39;32.79;99804.34;5085656;28;20196;-68
2022/07/22 07:24:27;;;;;;;;;;;;;;;33.70;31.68;99796.13;5086611;28;19940;-68
2022/07/22 07:26:52;;;;;;;;;;;;;;;33.59;32.56;99801.06;5085938;28;20619;-68
2022/07/22 07:29:17;;;;;;;;;;;;;;;33.97;31.53;99809.72;5084926;28;19916;-68
2022/07/22 07:31:43;;;;;;;;;;;;;;;33.61;31.17;99790.59;5087013;28;20110;-68
2022/07/22 07:34:08;;;;;;;;;;;;;;;33.83;30.91;99781.53;5085742;28;19912;-68
2022/07/22 07:36:33;;;;;;;;;;;;;;;33.44;31.83;99798.72;5089281;28;19927;-68
2022/07/22 07:38:59;;;;;;;;;;;;;;;33.74;31.58;99797.94;5086118;28;20178;-68
2022/07/22 07:41:24;;;;;;;;;;;;;;;34.05;31.28;99791.66;5084836;28;19920;-68
2022/07/22 07:43:50;;;;;;;;;;;;;;;34.33;31.09;99798.59;5085798;28;19931;-68
2022/07/22 07:46:15;;;;;;;;;;;;;;;34.33;30.51;99790.34;5087732;28;19912;-68
2022/07/22 07:48:40;;;;;;;;;;;;;;;34.12;31.37;99797.50;5085748;28;19955;-68
2022/07/22 07:51:06;;;;;;;;;;;;;;;33.66;31.45;99793.22;5085638;28;20151;-68
2022/07/22 07:53:31;;;;;;;;;;;;;;;33.52;32.30;99792.47;5085723;28;19919;-68
2022/07/22 07:55:57;;;;;;;;;;;;;;;33.22;32.42;99796.72;5085550;28;19928;-68
2022/07/22 07:58:22;;;;;;;;;;;;;;;33.29;31.74;99797.09;5084261;28;19912;-68
2022/07/22 08:00:47;;;;;;;;;;;;;;;33.78;32.34;99795.38;5084380;28;19920;-68
2022/07/22 08:03:12;;;;;;;;;;;;;;;34.20;31.44;99796.72;5085498;28;20015;-68
2022/07/22 08:05:41;;;;;;;;;;;;;;;34.22;31.62;99789.78;5085764;28;19924;-68
2022/07/22 08:08:06;;;;;;;;;;;;;;;34.64;31.15;99789.47;5086097;28;19912;-68
2022/07/22 08:10:32;;;;;;;;;;;;;;;34.92;29.96;99790.03;5085693;28;19931;-68
2022/07/22 08:12:57;;;;;;;;;;;;;;;34.84;29.97;99778.69;5085843;28;19958;-68
2022/07/22 08:15:23;;;;;;;;;;;;;;;35.12;29.97;99786.63;5084915;28;19953;-68
2022/07/22 08:17:49;;;;;;;;;;;;;;;34.54;31.06;99782.34;5085475;28;19923;-68
2022/07/22 08:20:14;;;;;;;;;;;;;;;34.66;30.30;99778.97;5084213;28;19916;-68
2022/07/22 08:22:39;;;;;;;;;;;;;;;35.02;30.22;99782.25;5084818;28;20054;-68
2022/07/22 08:25:05;;;;;;;;;;;;;;;34.86;29.74;99781.94;5083507;28;19947;-68
2022/07/22 08:27:30;;;;;;;;;;;;;;;35.11;29.54;99782.25;5084985;28;19939;-68
2022/07/22 08:29:55;;;;;;;;;;;;;;;34.88;30.46;99776.91;5085718;28;19934;-68
2022/07/22 08:32:21;;;;;;;;;;;;;;;34.96;29.96;99774.50;5086877;28;19952;-68
2022/07/22 08:34:47;;;;;;;;;;;;;;;35.04;29.50;99785.50;5085508;28;19923;-68
2022/07/22 08:37:12;;;;;;;;;;;;;;;34.68;30.71;99780.25;5083447;28;20086;-68
2022/07/22 08:39:37;;;;;;;;;;;;;;;34.91;29.80;99778.22;5085836;28;20116;-68
2022/07/22 08:42:03;;;;;;;;;;;;;;;35.03;29.70;99770.13;5096483;28;20194;-68
2022/07/22 08:44:29;;;;;;;;;;;;;;;35.11;29.81;99783.06;5103957;28;19912;-68
2022/07/22 08:46:55;;;;;;;;;;;;;;;35.45;29.75;99778.72;5085545;28;19912;-68
2022/07/22 08:49:20;;;;;;;;;;;;;;;35.58;28.99;99771.41;5103967;28;20327;-68
2022/07/22 08:51:46;;;;;;;;;;;;;;;35.53;29.13;99780.66;5103156;28;19966;-68
2022/07/22 08:54:11;;;;;;;;;;;;;;;35.29;29.24;99780.31;5100707;28;19943;-68
2022/07/22 08:56:37;;;;;;;;;;;;;;;35.41;28.96;99778.56;5084559;28;19943;-68
2022/07/22 08:59:03;;;;;;;;;;;;;;;35.48;28.81;99773.38;5084450;28;19924;-68
2022/07/22 09:01:28;;;;;;;;;;;;;;;35.76;27.97;99779.31;5083771;28;19920;-68
2022/07/22 09:03:55;;;;;;;;;;;;;;;35.86;27.29;99775.41;5085037;28;19932;-68
2022/07/22 09:06:22;;;;;;;;;;;;;;;35.73;28.14;99768.13;5084211;28;20087;-68
2022/07/22 09:08:57;;;;;;;;;;;;;;;35.63;28.39;99774.81;5083364;28;19926;-68
2022/07/22 09:11:24;;;;;;;;;;;;;;;35.65;27.76;99774.47;5084224;28;19912;-68
2022/07/22 09:13:50;;;;;;;;;;;;;;;35.25;29.00;99776.59;5083550;28;19924;-68
2022/07/22 09:16:16;;;;;;;;;;;;;;;35.28;28.94;99782.25;5084887;28;19957;-68
2022/07/22 09:18:45;;;;;;;;;;;;;;;35.18;28.82;99779.84;5083703;28;20145;-68
2022/07/22 09:21:11;;;;;;;;;;;;;;;35.40;28.23;99779.72;5082568;28;19913;-68
2022/07/22 09:23:41;;;;;;;;;;;;;;;35.36;28.50;99778.72;5084457;28;19925;-68
2022/07/22 09:26:06;;;;;;;;;;;;;;;35.30;28.00;99774.47;5083531;28;19988;-68
2022/07/22 09:28:31;;;;;;;;;;;;;;;35.24;28.38;99780.47;5082627;28;19912;-68
2022/07/22 09:30:57;;;;;;;;;;;;;;;34.99;28.09;99776.59;5083292;28;19920;-68
2022/07/22 09:33:23;;;;;;;;;;;;;;;35.11;28.14;99769.31;5081660;28;19985;-68
2022/07/22 09:35:49;;;;;;;;;;;;;;;34.87;29.70;99771.75;5082368;28;19920;-68
2022/07/22 09:38:15;;;;;;;;;;;;;;;34.93;28.85;99761.38;5084151;28;20018;-68
2022/07/22 09:40:44;;;;;;;;;;;;;;;34.99;28.54;99769.16;5083139;28;19922;-68
2022/07/22 09:43:12;;;;;;;;;;;;;;;35.02;29.11;99771.25;5081745;28;20117;-68
2022/07/22 09:45:44;;;;;;;;;;;;;;;35.10;27.91;99745.69;5080817;28;19966;-68
2022/07/22 09:48:09;;;;;;;;;;;;;;;34.93;27.81;99764.94;5085533;28;20037;-68
2022/07/22 09:50:35;;;;;;;;;;;;;;;34.70;29.41;99760.69;5081402;28;20222;-68
2022/07/22 09:53:00;;;;;;;;;;;;;;;34.58;28.31;99764.06;5083194;28;19912;-68
2022/07/22 09:55:26;;;;;;;;;;;;;;;34.52;29.23;99768.09;5084570;28;19916;-69
2022/07/22 09:57:53;;;;;;;;;;;;;;;34.49;29.87;99760.50;5082793;28;19912;-68
2022/07/22 10:00:20;;;;;;;;;;;;;;;34.81;29.10;99759.25;5082505;28;19923;-68
2022/07/22 10:02:47;;;;;;;;;;;;;;;34.77;29.61;99764.59;5083760;28;19920;-68
2022/07/22 10:05:13;;;;;;;;;;;;;;;34.84;29.31;99751.19;5082425;28;19920;-68
2022/07/22 10:07:40;;;;;;;;;;;;;;;34.82;28.82;99747.94;5066186;28;19912;-68
2022/07/22 10:10:06;;;;;;;;;;;;;;;34.77;28.79;99750.84;5082301;28;19979;-67
2022/07/22 10:12:33;;;;;;;;;;;;;;;34.94;28.53;99749.25;5085977;28;19920;-68
2022/07/22 10:14:59;;;;;;;;;;;;;;;34.90;28.87;99743.59;5085083;28;20117;-68
2022/07/22 10:17:24;;;;;;;;;;;;;;;35.03;28.95;99744.56;5084510;28;19912;-68
2022/07/22 10:19:50;;;;;;;;;;;;;;;35.05;28.44;99743.09;5084547;28;19992;-68
2022/07/22 10:22:35;;;;;;;;;;;;;;;34.96;28.03;99738.72;5085930;28;19979;-68
2022/07/22 10:25:01;;;;;;;;;;;;;;;34.79;30.13;99737.56;5078792;28;19962;-68
2022/07/22 10:27:45;;;;;;;;;;;;;;;34.79;28.87;99736.75;5087475;28;20345;-68
2022/07/22 10:30:10;;;;;;;;;;;;;;;34.83;29.11;99730.31;5089579;28;19951;-68
2022/07/22 10:32:36;;;;;;;;;;;;;;;34.99;29.28;99727.88;5087462;28;19912;-68
2022/07/22 10:35:02;;;;;;;;;;;;;;;34.99;28.40;99727.06;5087646;28;19948;-68
2022/07/22 10:37:41;;;;;;;;;;;;;;;35.13;27.93;99724.97;5088950;28;20184;-68
2022/07/22 10:40:15;;;;;;;;;;;;;;;35.24;27.96;99717.97;5088453;28;19966;-68
2022/07/22 10:42:59;;;;;;;;;;;;;;;35.09;28.25;99718.50;5087465;28;20221;-68
2022/07/22 10:45:25;;;;;;;;;;;;;;;35.17;28.28;99712.97;5085691;28;19916;-68
2022/07/22 10:47:55;;;;;;;;;;;;;;;35.03;27.94;99714.28;5084971;28;19926;-68
2022/07/22 10:50:37;;;;;;;;;;;;;;;34.96;27.78;99711.22;5085959;28;19917;-68
2022/07/22 10:53:12;;;;;;;;;;;;;;;35.16;28.01;99713.28;5086483;28;19919;-68
2022/07/22 10:55:38;;;;;;;;;;;;;;;34.87;28.30;99716.72;5086191;28;19959;-68
2022/07/22 10:58:22;;;;;;;;;;;;;;;34.89;28.69;99712.50;5086431;28;20233;-68
2022/07/22 11:00:48;;;;;;;;;;;;;;;34.85;28.61;99713.50;5086799;28;20145;-68
2022/07/22 11:03:23;;;;;;;;;;;;;;;34.81;28.12;99716.03;5085988;28;19912;-68
2022/07/22 11:05:48;;;;;;;;;;;;;;;34.55;27.26;99702.28;5084308;28;19919;-68
2022/07/22 11:08:13;;;;;;;;;;;;;;;34.57;27.97;99700.03;5083456;28;19912;-68
2022/07/22 11:10:46;;;;;;;;;;;;;;;34.58;28.63;99696.13;5084962;28;19916;-68
2022/07/22 11:13:11;;;;;;;;;;;;;;;34.73;30.61;99688.53;5087395;28;20222;-68
2022/07/22 11:15:36;;;;;;;;;;;;;;;34.80;29.71;99697.91;5086592;28;19927;-68
2022/07/22 11:18:02;;;;;;;;;;;;;;;34.70;28.58;99703.75;5085105;28;19913;-68
2022/07/22 11:20:29;;;;;;;;;;;;;;;34.65;28.83;99695.66;5083865;28;19973;-68
2022/07/22 11:22:55;;;;;;;;;;;;;;;34.71;29.21;99694.38;5084390;28;20280;-68
2022/07/22 11:25:25;;;;;;;;;;;;;;;34.67;28.88;99693.41;5087608;28;19923;-68
2022/07/22 11:27:52;;;;;;;;;;;;;;;34.49;28.14;99692.56;5085513;28;19920;-68
2022/07/22 11:30:17;;;;;;;;;;;;;;;34.38;27.70;99683.03;5088140;28;20369;-69
2022/07/22 11:32:42;;;;;;;;;;;;;;;34.37;27.96;99683.34;5084591;28;19934;-68
2022/07/22 11:35:11;;;;;;;;;;;;;;;34.68;27.31;99683.19;5085131;28;19916;-68
2022/07/22 11:37:36;;;;;;;;;;;;;;;34.96;27.54;99684.50;5083936;28;20205;-68
2022/07/22 11:40:04;;;;;;;;;;;;;;;34.97;27.20;99677.88;5083981;28;19917;-68
2022/07/22 11:42:29;;;;;;;;;;;;;;;34.94;26.93;99675.78;5086064;28;19920;-68
2022/07/22 11:44:55;;;;;;;;;;;;;;;35.01;25.68;99675.28;5085984;28;20244;-68
2022/07/22 11:47:20;;;;;;;;;;;;;;;34.96;25.72;99672.69;5086154;28;19920;-68
2022/07/22 11:49:49;;;;;;;;;;;;;;;34.79;26.92;99674.31;5085695;28;19970;-68
2022/07/22 11:52:15;;;;;;;;;;;;;;;34.68;25.55;99673.00;5085483;28;20221;-68
2022/07/22 11:54:41;;;;;;;;;;;;;;;34.89;26.01;99667.69;5086057;28;19924;-68
2022/07/22 11:57:07;;;;;;;;;;;;;;;35.03;25.57;99664.75;5085126;28;19966;-68
2022/07/22 11:59:32;;;;;;;;;;;;;;;35.12;22.97;99662.78;5083374;28;19912;-68
2022/07/22 12:01:58;;;;;;;;;;;;;;;35.07;23.86;99662.97;5083679;28;20214;-68
2022/07/22 12:04:24;;;;;;;;;;;;;;;35.20;22.53;99664.72;5085575;28;20500;-68
2022/07/22 12:06:50;;;;;;;;;;;;;;;35.24;22.59;99649.16;5083473;28;19913;-68
2022/07/22 12:09:16;;;;;;;;;;;;;;;35.44;23.08;99653.22;5066783;28;19924;-68
2022/07/22 12:11:46;;;;;;;;;;;;;;;35.48;22.89;99646.72;5085896;28;19918;-68
2022/07/22 12:14:15;;;;;;;;;;;;;;;35.19;22.77;99627.31;5085735;28;20201;-68
2022/07/22 12:16:41;;;;;;;;;;;;;;;35.47;23.06;99641.53;5086330;28;20240;-68
2022/07/22 12:19:07;;;;;;;;;;;;;;;35.20;21.43;99640.75;5083885;28;19912;-68
2022/07/22 12:21:35;;;;;;;;;;;;;;;35.27;20.68;99636.69;5084351;28;20194;-68
2022/07/22 12:24:02;;;;;;;;;;;;;;;35.42;23.53;99637.03;5084947;28;20243;-68
2022/07/22 12:26:37;;;;;;;;;;;;;;;35.57;22.67;99632.91;5083996;28;20259;-68
2022/07/22 12:29:20;;;;;;;;;;;;;;;35.39;21.47;99636.88;5083477;28;19924;-68
2022/07/22 12:31:56;;;;;;;;;;;;;;;35.35;25.22;99631.19;5084348;28;19912;-68
2022/07/22 12:34:40;;;;;;;;;;;;;;;35.37;23.81;99628.09;5084688;28;20259;-68
2022/07/22 12:37:25;;;;;;;;;;;;;;;35.25;23.81;99628.75;5083902;28;19943;-68
2022/07/22 12:39:57;;;;;;;;;;;;;;;35.21;24.24;99620.34;5084013;28;20117;-68
2022/07/22 12:42:23;;;;;;;;;;;;;;;35.17;23.03;99624.09;5094083;28;19920;-68